createdAt,value
2023-03-26T00:02:21.539Z,100.00
2023-03-26T00:04:55.339Z,100.00
2023-03-26T00:07:23.589Z,100.00
2023-03-26T00:09:55.654Z,100.00
2023-03-26T00:12:25.942Z,100.00
2023-03-26T00:14:57.741Z,100.00
2023-03-26T00:17:26.256Z,100.00
2023-03-26T00:20:04.431Z,100.00
2023-03-26T00:22:35.660Z,100.00
2023-03-26T00:25:12.554Z,100.00
2023-03-26T00:27:45.745Z,100.00
2023-03-26T00:30:15.673Z,100.00
2023-03-26T00:32:53.714Z,100.00
2023-03-26T00:35:22.571Z,100.00
2023-03-26T00:37:53.315Z,100.00
2023-03-26T00:40:23.110Z,100.00
2023-03-26T00:42:53.434Z,100.00
2023-03-26T00:45:26.635Z,100.00
2023-03-26T00:47:56.372Z,100.00
2023-03-26T00:50:25.026Z,100.00
2023-03-26T00:53:02.417Z,100.00
2023-03-26T00:55:38.987Z,100.00
2023-03-26T00:58:14.318Z,100.00
2023-03-26T01:00:53.152Z,100.00
2023-03-26T01:03:38.000Z,100.00
2023-03-26T01:06:17.882Z,100.00
2023-03-26T01:08:50.316Z,100.00
2023-03-26T01:11:33.890Z,100.00
2023-03-26T01:14:02.154Z,100.00
2023-03-26T01:17:08.859Z,100.00
2023-03-26T01:19:52.113Z,100.00
2023-03-26T01:22:26.599Z,100.00
2023-03-26T01:25:00.549Z,100.00
2023-03-26T01:28:06.248Z,100.00
2023-03-26T01:30:44.171Z,100.00
2023-03-26T01:33:26.975Z,100.00
2023-03-26T01:36:12.299Z,100.00
2023-03-26T01:39:05.808Z,100.00
2023-03-26T01:41:49.546Z,100.00
2023-03-26T01:44:35.038Z,100.00
2023-03-26T01:47:07.610Z,100.00
2023-03-26T01:49:46.121Z,100.00
2023-03-26T01:52:24.590Z,100.00
2023-03-26T01:55:02.035Z,100.00
2023-03-26T01:57:39.831Z,100.00
2023-03-26T02:00:26.384Z,100.00
2023-03-26T02:03:00.844Z,100.00
2023-03-26T02:05:46.955Z,100.00
2023-03-26T02:08:37.503Z,100.00
2023-03-26T02:11:13.239Z,100.00
2023-03-26T02:13:49.506Z,100.00
2023-03-26T02:16:25.744Z,100.00
2023-03-26T02:19:00.055Z,100.00
2023-03-26T02:21:34.356Z,100.00
2023-03-26T02:24:07.268Z,100.00
2023-03-26T02:26:43.432Z,100.00
2023-03-26T02:29:16.216Z,100.00
2023-03-26T02:31:49.437Z,100.00
2023-03-26T02:34:20.016Z,100.00
2023-03-26T02:37:01.510Z,100.00
2023-03-26T02:39:32.442Z,100.00
2023-03-26T02:42:16.183Z,100.00
2023-03-26T02:44:50.716Z,100.00
2023-03-26T02:47:25.338Z,100.00
2023-03-26T02:49:58.112Z,100.00
2023-03-26T02:52:50.144Z,100.00
2023-03-26T02:55:21.188Z,100.00
2023-03-26T02:57:54.889Z,100.00
2023-03-26T03:00:37.813Z,100.00
2023-03-26T03:03:26.429Z,100.00
2023-03-26T03:06:10.114Z,100.00
2023-03-26T03:08:55.227Z,100.00
2023-03-26T03:11:41.785Z,100.00
2023-03-26T03:14:14.049Z,100.00
2023-03-26T03:16:48.816Z,100.00
2023-03-26T03:19:21.663Z,100.00
2023-03-26T03:21:57.111Z,100.00
2023-03-26T03:24:27.311Z,100.00
2023-03-26T03:27:02.787Z,100.00
2023-03-26T03:29:48.872Z,100.00
2023-03-26T03:32:46.970Z,100.00
2023-03-26T03:35:21.497Z,100.00
2023-03-26T03:38:06.287Z,100.00
2023-03-26T03:40:42.295Z,100.00
2023-03-26T03:43:17.143Z,100.00
2023-03-26T03:45:55.235Z,100.00
2023-03-26T03:48:46.869Z,100.00
2023-03-26T03:51:27.730Z,100.00
2023-03-26T03:54:15.058Z,100.00
2023-03-26T03:57:03.114Z,100.00
2023-03-26T03:59:52.158Z,100.00
2023-03-26T04:02:32.534Z,100.00
2023-03-26T04:05:10.828Z,100.00
2023-03-26T04:07:45.047Z,100.00
2023-03-26T04:10:41.070Z,100.00
2023-03-26T04:13:14.178Z,100.00
2023-03-26T04:16:07.516Z,100.00
2023-03-26T04:18:42.258Z,100.00
2023-03-26T04:21:16.085Z,100.00
2023-03-26T04:23:45.994Z,100.00
2023-03-26T04:26:58.197Z,100.00
2023-03-26T04:29:45.014Z,100.00
2023-03-26T04:32:30.338Z,100.00
2023-03-26T04:35:08.192Z,100.00
2023-03-26T04:37:46.300Z,100.00
2023-03-26T04:40:20.598Z,100.00
2023-03-26T04:43:02.625Z,100.00
2023-03-26T04:45:51.250Z,100.00
2023-03-26T04:48:30.599Z,100.00
2023-03-26T04:51:04.088Z,100.00
2023-03-26T04:53:39.124Z,100.00
2023-03-26T04:56:30.890Z,100.00
2023-03-26T04:59:32.918Z,100.00
2023-03-26T05:02:05.337Z,100.00
2023-03-26T05:04:45.097Z,100.00
2023-03-26T05:07:17.783Z,100.00
2023-03-26T05:09:55.310Z,100.00
2023-03-26T05:12:24.942Z,100.00
2023-03-26T05:15:03.333Z,100.00
2023-03-26T05:17:42.777Z,100.00
2023-03-26T05:20:38.381Z,100.00
2023-03-26T05:23:20.391Z,100.00
2023-03-26T05:26:01.761Z,100.00
2023-03-26T05:28:37.109Z,100.00
2023-03-26T05:31:25.368Z,100.00
2023-03-26T05:33:58.447Z,100.00
2023-03-26T05:36:41.097Z,100.00
2023-03-26T05:39:27.762Z,100.00
2023-03-26T05:42:06.891Z,100.00
2023-03-26T05:44:48.997Z,100.00
2023-03-26T05:47:26.494Z,99.99
2023-03-26T05:49:54.865Z,100.00
2023-03-26T05:52:26.768Z,99.97
2023-03-26T05:55:18.865Z,100.00
2023-03-26T05:58:16.603Z,99.95
2023-03-26T06:01:08.719Z,99.94
2023-03-26T06:04:00.830Z,100.00
2023-03-26T06:06:38.395Z,100.00
2023-03-26T06:09:09.952Z,100.00
2023-03-26T06:11:48.772Z,99.91
2023-03-26T06:14:25.554Z,100.00
2023-03-26T06:17:14.159Z,100.00
2023-03-26T06:20:09.159Z,100.00
2023-03-26T06:22:45.365Z,100.00
2023-03-26T06:25:24.196Z,100.00
2023-03-26T06:28:21.147Z,100.00
2023-03-26T06:31:19.521Z,99.80
2023-03-26T06:34:12.286Z,99.62
2023-03-26T06:36:45.271Z,98.59
2023-03-26T06:39:13.953Z,97.65
2023-03-26T06:41:53.389Z,95.60
2023-03-26T06:45:02.321Z,94.62
2023-03-26T06:47:45.474Z,94.40
2023-03-26T06:50:51.219Z,94.21
2023-03-26T06:53:44.587Z,93.75
2023-03-26T06:56:38.890Z,92.64
2023-03-26T06:59:32.460Z,91.57
2023-03-26T07:02:39.655Z,87.87
2023-03-26T07:05:30.110Z,87.46
2023-03-26T07:08:17.844Z,86.56
2023-03-26T07:11:08.444Z,82.47
2023-03-26T07:14:14.922Z,82.97
2023-03-26T07:17:05.123Z,82.82
2023-03-26T07:20:09.482Z,82.33
2023-03-26T07:22:42.125Z,81.02
2023-03-26T07:25:23.717Z,80.58
2023-03-26T07:29:04.056Z,78.39
2023-03-26T07:32:22.019Z,77.38
2023-03-26T07:35:22.483Z,76.92
2023-03-26T07:38:43.869Z,75.33
2023-03-26T07:41:56.176Z,72.89
2023-03-26T07:45:14.933Z,73.27
2023-03-26T07:48:22.427Z,73.85
2023-03-26T07:51:20.810Z,74.89
2023-03-26T07:54:12.568Z,74.47
2023-03-26T07:57:12.429Z,74.42
2023-03-26T08:00:22.263Z,73.79
2023-03-26T08:03:23.627Z,73.44
2023-03-26T08:06:14.805Z,72.97
2023-03-26T08:09:22.178Z,73.00
2023-03-26T08:12:26.538Z,71.63
2023-03-26T08:15:02.655Z,70.78
2023-03-26T08:17:55.937Z,68.70
2023-03-26T08:20:34.242Z,68.39
2023-03-26T08:23:37.566Z,67.55
2023-03-26T08:26:38.669Z,65.52
2023-03-26T08:29:34.800Z,66.34
2023-03-26T08:32:12.132Z,66.79
2023-03-26T08:34:43.636Z,66.84
2023-03-26T08:37:14.685Z,67.50
2023-03-26T08:39:43.370Z,67.15
2023-03-26T08:42:36.651Z,65.21
2023-03-26T08:45:29.792Z,66.46
2023-03-26T08:48:32.678Z,66.92
2023-03-26T08:51:12.184Z,66.73
2023-03-26T08:54:06.725Z,66.25
2023-03-26T08:57:03.637Z,65.42
2023-03-26T09:00:17.101Z,65.09
2023-03-26T09:03:12.403Z,66.34
2023-03-26T09:06:12.938Z,66.78
2023-03-26T09:08:54.935Z,68.05
2023-03-26T09:11:55.777Z,68.45
2023-03-26T09:14:40.648Z,69.30
2023-03-26T09:17:53.073Z,69.10
2023-03-26T09:21:03.522Z,68.93
2023-03-26T09:24:24.227Z,68.63
2023-03-26T09:27:18.619Z,68.65
2023-03-26T09:29:57.142Z,69.37
2023-03-26T09:32:50.307Z,68.22
2023-03-26T09:35:35.012Z,67.90
2023-03-26T09:38:18.391Z,68.84
2023-03-26T09:43:34.398Z,67.76
2023-03-26T09:47:23.858Z,68.56
2023-03-26T09:50:17.469Z,70.37
2023-03-26T09:52:59.557Z,71.59
2023-03-26T09:56:02.648Z,71.83
2023-03-26T09:58:52.434Z,71.07
2023-03-26T10:01:51.017Z,70.97
2023-03-26T10:05:01.436Z,70.97
2023-03-26T10:07:52.594Z,71.18
2023-03-26T10:10:44.830Z,71.44
2023-03-26T10:13:24.272Z,70.44
2023-03-26T10:16:31.981Z,70.77
2023-03-26T10:19:15.093Z,71.17
2023-03-26T10:22:17.991Z,71.89
2023-03-26T10:25:27.550Z,72.14
2023-03-26T10:28:14.336Z,72.38
2023-03-26T10:31:06.456Z,72.58
2023-03-26T10:34:03.526Z,72.42
2023-03-26T10:36:43.181Z,72.43
2023-03-26T10:39:38.980Z,72.68
2023-03-26T10:42:28.154Z,72.49
2023-03-26T10:45:07.330Z,71.68
2023-03-26T10:48:02.451Z,70.64
2023-03-26T10:50:54.686Z,70.13
2023-03-26T10:53:33.761Z,68.41
2023-03-26T10:56:20.579Z,67.36
2023-03-26T10:58:50.154Z,66.86
2023-03-26T11:01:31.829Z,65.97
2023-03-26T11:04:15.716Z,65.86
2023-03-26T11:06:47.473Z,66.05
2023-03-26T11:09:16.470Z,65.82
2023-03-26T11:12:26.482Z,65.67
2023-03-26T11:14:56.751Z,65.66
2023-03-26T11:17:40.353Z,65.28
2023-03-26T11:20:21.159Z,63.99
2023-03-26T11:23:13.601Z,63.43
2023-03-26T11:26:08.716Z,63.84
2023-03-26T11:29:30.999Z,64.19
2023-03-26T11:32:10.910Z,62.41
2023-03-26T11:35:04.573Z,61.87
2023-03-26T11:37:53.951Z,61.92
2023-03-26T11:40:42.245Z,61.66
2023-03-26T11:43:21.510Z,61.88
2023-03-26T11:45:52.739Z,62.26
2023-03-26T11:48:42.145Z,61.42
2023-03-26T11:51:18.181Z,60.72
2023-03-26T11:53:47.407Z,59.60
2023-03-26T11:56:28.375Z,59.98
2023-03-26T11:59:14.874Z,59.49
2023-03-26T12:02:00.368Z,59.81
2023-03-26T12:04:41.226Z,59.05
2023-03-26T12:07:24.023Z,56.77
2023-03-26T12:10:18.091Z,55.69
2023-03-26T12:12:52.296Z,55.74
2023-03-26T12:15:21.233Z,55.78
2023-03-26T12:17:56.593Z,54.91
2023-03-26T12:20:27.134Z,53.88
2023-03-26T12:22:59.757Z,52.93
2023-03-26T12:25:33.705Z,52.72
2023-03-26T12:28:14.265Z,52.80
2023-03-26T12:30:58.173Z,52.54
2023-03-26T12:33:29.029Z,52.19
2023-03-26T12:36:00.899Z,51.39
2023-03-26T12:38:35.929Z,50.68
2023-03-26T12:41:06.157Z,49.71
2023-03-26T12:44:54.488Z,49.21
2023-03-26T12:47:54.933Z,49.74
2023-03-26T12:49:25.102Z,50.91
2023-03-26T12:52:40.755Z,51.08
2023-03-26T12:55:30.940Z,49.65
2023-03-26T12:58:18.562Z,48.51
2023-03-26T13:01:02.648Z,48.96
2023-03-26T13:04:02.020Z,50.08
2023-03-26T13:06:59.564Z,50.26
2023-03-26T13:09:45.475Z,49.85
2023-03-26T13:12:17.846Z,48.67
2023-03-26T13:18:08.601Z,44.95
2023-03-26T13:21:09.202Z,44.80
2023-03-26T13:23:45.060Z,43.77
2023-03-26T13:26:33.416Z,43.37
2023-03-26T13:29:22.222Z,41.38
2023-03-26T13:32:20.575Z,40.62
2023-03-26T13:35:03.171Z,40.78
2023-03-26T13:37:35.330Z,40.60
2023-03-26T13:40:15.383Z,41.30
2023-03-26T13:43:01.286Z,42.64
2023-03-26T13:45:57.243Z,44.04
2023-03-26T13:48:40.122Z,45.16
2023-03-26T13:51:14.028Z,45.66
2023-03-26T13:54:32.482Z,45.31
2023-03-26T13:57:25.131Z,44.27
2023-03-26T14:00:15.269Z,44.90
2023-03-26T14:02:44.475Z,45.93
2023-03-26T14:05:27.776Z,47.20
2023-03-26T14:08:24.514Z,47.83
2023-03-26T14:11:03.555Z,48.84
2023-03-26T14:13:36.487Z,49.55
2023-03-26T14:16:17.242Z,50.41
2023-03-26T14:19:09.122Z,51.24
2023-03-26T14:22:13.734Z,52.36
2023-03-26T14:25:03.836Z,53.91
2023-03-26T14:28:04.459Z,55.06
2023-03-26T14:30:56.878Z,55.51
2023-03-26T14:34:01.529Z,55.34
2023-03-26T14:36:51.418Z,56.17
2023-03-26T14:39:32.691Z,56.64
2023-03-26T14:42:25.032Z,57.08
2023-03-26T14:45:11.637Z,57.32
2023-03-26T14:47:49.865Z,56.33
2023-03-26T14:50:47.012Z,54.82
2023-03-26T14:53:21.474Z,53.19
2023-03-26T14:55:54.518Z,52.09
2023-03-26T14:58:45.220Z,51.63
2023-03-26T15:01:23.073Z,51.33
2023-03-26T15:04:26.429Z,51.32
2023-03-26T15:07:20.873Z,50.79
2023-03-26T15:10:12.207Z,49.72
2023-03-26T15:13:18.598Z,48.81
2023-03-26T15:16:27.494Z,49.52
2023-03-26T15:19:20.122Z,50.40
2023-03-26T15:21:55.323Z,51.09
2023-03-26T15:24:27.587Z,52.15
2023-03-26T15:27:04.676Z,53.05
2023-03-26T15:30:00.196Z,53.84
2023-03-26T15:32:33.434Z,54.63
2023-03-26T15:35:06.187Z,55.70
2023-03-26T15:37:35.354Z,56.75
2023-03-26T15:40:19.152Z,57.63
2023-03-26T15:43:03.573Z,58.64
2023-03-26T15:45:42.306Z,59.59
2023-03-26T15:48:13.475Z,60.20
2023-03-26T15:51:16.776Z,60.55
2023-03-26T15:53:54.527Z,60.71
2023-03-26T15:56:36.125Z,61.07
2023-03-26T15:59:05.731Z,61.72
2023-03-26T16:01:49.677Z,62.28
2023-03-26T16:05:19.438Z,63.00
2023-03-26T16:08:15.037Z,63.61
2023-03-26T16:10:58.785Z,64.21
2023-03-26T16:13:37.911Z,65.22
2023-03-26T16:16:14.957Z,65.45
2023-03-26T16:18:48.596Z,65.79
2023-03-26T16:21:31.994Z,65.66
2023-03-26T16:24:05.882Z,65.95
2023-03-26T16:26:44.177Z,66.34
2023-03-26T16:29:27.107Z,66.50
2023-03-26T16:32:15.078Z,66.96
2023-03-26T16:35:02.182Z,67.50
2023-03-26T16:37:38.598Z,67.76
2023-03-26T16:40:20.965Z,68.10
2023-03-26T16:43:17.064Z,68.73
2023-03-26T16:45:56.500Z,69.24
2023-03-26T16:49:11.884Z,69.73
2023-03-26T16:52:08.749Z,70.46
2023-03-26T16:54:47.352Z,70.66
2023-03-26T16:57:30.065Z,70.88
2023-03-26T17:00:35.007Z,70.59
2023-03-26T17:03:39.309Z,70.45
2023-03-26T17:06:19.170Z,70.43
2023-03-26T17:09:53.097Z,70.47
2023-03-26T17:12:54.035Z,70.65
2023-03-26T17:16:04.092Z,70.59
2023-03-26T17:18:39.035Z,70.35
2023-03-26T17:21:18.503Z,70.29
2023-03-26T17:24:04.368Z,70.40
2023-03-26T17:26:39.076Z,70.22
2023-03-26T17:29:10.217Z,70.61
2023-03-26T17:31:45.417Z,70.95
2023-03-26T17:34:49.475Z,71.22
2023-03-26T17:37:24.312Z,71.47
2023-03-26T17:40:01.791Z,71.54
2023-03-26T17:42:36.133Z,71.81
2023-03-26T17:45:25.917Z,72.19
2023-03-26T17:48:02.652Z,72.45
2023-03-26T17:50:54.390Z,72.79
2023-03-26T17:53:29.235Z,73.38
2023-03-26T17:56:03.928Z,73.99
2023-03-26T17:58:36.745Z,74.30
2023-03-26T18:01:24.302Z,74.55
2023-03-26T18:03:56.416Z,75.05
2023-03-26T18:06:43.764Z,75.44
2023-03-26T18:09:34.672Z,75.99
2023-03-26T18:12:24.973Z,76.49
2023-03-26T18:15:31.813Z,76.91
2023-03-26T18:18:18.286Z,77.24
2023-03-26T18:20:48.163Z,77.48
2023-03-26T18:23:29.035Z,77.64
2023-03-26T18:26:22.406Z,78.01
2023-03-26T18:28:54.046Z,78.51
2023-03-26T18:31:28.252Z,78.91
2023-03-26T18:34:06.781Z,79.37
2023-03-26T18:36:35.168Z,79.42
2023-03-26T18:39:04.479Z,79.39
2023-03-26T18:41:42.222Z,79.64
2023-03-26T18:44:16.170Z,79.99
2023-03-26T18:46:45.989Z,80.29
2023-03-26T18:49:15.911Z,80.64
2023-03-26T18:51:56.100Z,80.95
2023-03-26T18:54:25.668Z,81.40
2023-03-26T18:56:55.503Z,81.62
2023-03-26T18:59:32.705Z,81.81
2023-03-26T19:02:04.651Z,82.39
2023-03-26T19:04:34.246Z,82.59
2023-03-26T19:07:04.282Z,83.17
2023-03-26T19:09:33.760Z,83.42
2023-03-26T19:12:08.585Z,83.77
2023-03-26T19:14:57.757Z,83.90
2023-03-26T19:17:34.969Z,84.33
2023-03-26T19:20:10.040Z,84.53
2023-03-26T19:22:41.705Z,84.88
2023-03-26T19:25:10.529Z,85.00
2023-03-26T19:27:38.698Z,85.13
2023-03-26T19:30:14.376Z,85.37
2023-03-26T19:32:44.095Z,85.82
2023-03-26T19:35:20.986Z,86.20
2023-03-26T19:37:50.957Z,86.06
2023-03-26T19:40:28.011Z,86.22
2023-03-26T19:42:59.492Z,86.76
2023-03-26T19:45:27.869Z,87.21
2023-03-26T19:48:11.660Z,87.47
2023-03-26T19:50:53.127Z,87.48
2023-03-26T19:53:25.754Z,87.76
2023-03-26T19:55:58.940Z,88.31
2023-03-26T19:58:27.494Z,88.60
2023-03-26T20:00:59.605Z,88.27
2023-03-26T20:03:43.373Z,88.51
2023-03-26T20:06:13.017Z,88.79
2023-03-26T20:08:46.782Z,88.88
2023-03-26T20:11:17.351Z,88.90
2023-03-26T20:13:46.624Z,89.06
2023-03-26T20:16:24.952Z,89.38
2023-03-26T20:18:57.968Z,89.48
2023-03-26T20:21:29.666Z,89.28
2023-03-26T20:23:59.375Z,89.00
2023-03-26T20:26:28.073Z,89.02
2023-03-26T20:28:56.545Z,89.10
2023-03-26T20:31:26.813Z,89.16
2023-03-26T20:33:55.243Z,89.53
2023-03-26T20:36:34.147Z,89.71
2023-03-26T20:39:08.196Z,89.87
2023-03-26T20:41:41.902Z,89.72
2023-03-26T20:44:15.808Z,89.98
2023-03-26T20:46:44.328Z,89.94
2023-03-26T20:49:13.265Z,90.27
2023-03-26T20:51:45.950Z,90.46
2023-03-26T20:54:22.209Z,90.55
2023-03-26T20:56:51.259Z,90.41
2023-03-26T20:59:22.604Z,90.43
2023-03-26T21:01:51.648Z,90.36
2023-03-26T21:04:20.761Z,90.42
2023-03-26T21:06:49.122Z,90.58
2023-03-26T21:09:19.239Z,90.52
2023-03-26T21:11:52.455Z,90.52
2023-03-26T21:14:25.827Z,90.82
2023-03-26T21:16:55.797Z,90.76
2023-03-26T21:19:24.535Z,90.85
2023-03-26T21:21:59.376Z,90.69
2023-03-26T21:24:34.984Z,90.79
2023-03-26T21:27:29.509Z,90.90
2023-03-26T21:29:58.431Z,90.83
2023-03-26T21:32:27.479Z,90.72
2023-03-26T21:34:59.660Z,90.73
2023-03-26T21:37:29.168Z,90.65
2023-03-26T21:40:00.155Z,90.75
2023-03-26T21:42:29.559Z,90.50
2023-03-26T21:44:58.223Z,90.98
2023-03-26T21:47:28.594Z,90.63
2023-03-26T21:49:58.131Z,91.13
2023-03-26T21:52:26.817Z,91.36
2023-03-26T21:55:03.827Z,91.52
2023-03-26T21:57:48.469Z,91.56
2023-03-26T22:02:23.292Z,91.29
2023-03-26T22:04:56.395Z,91.26
2023-03-26T22:07:52.756Z,91.26
2023-03-26T22:10:21.770Z,91.36
2023-03-26T22:12:54.200Z,91.42
2023-03-26T22:15:22.782Z,91.40
2023-03-26T22:17:54.374Z,91.39
2023-03-26T22:20:25.440Z,91.58
2023-03-26T22:22:55.416Z,91.60
2023-03-26T22:25:23.893Z,91.55
2023-03-26T22:27:57.785Z,91.52
2023-03-26T22:30:27.408Z,91.97
2023-03-26T22:32:57.144Z,92.00
2023-03-26T22:35:26.425Z,92.14
2023-03-26T22:38:00.360Z,92.52
2023-03-26T22:40:30.232Z,92.67
2023-03-26T22:42:58.664Z,92.40
2023-03-26T22:45:30.377Z,92.33
2023-03-26T22:48:03.003Z,92.29
2023-03-26T22:50:33.164Z,92.67
2023-03-26T22:53:05.239Z,92.70
2023-03-26T22:55:33.918Z,92.80
2023-03-26T22:58:06.193Z,92.84
2023-03-26T23:00:37.035Z,92.98
2023-03-26T23:03:06.569Z,93.30
2023-03-26T23:05:39.016Z,93.40
2023-03-26T23:08:10.379Z,93.73
2023-03-26T23:10:43.111Z,93.90
2023-03-26T23:13:11.924Z,93.79
2023-03-26T23:15:41.535Z,93.71
2023-03-26T23:18:10.272Z,93.60
2023-03-26T23:20:40.144Z,93.90
2023-03-26T23:23:08.638Z,93.55
2023-03-26T23:25:41.094Z,93.49
2023-03-26T23:28:10.508Z,93.73
2023-03-26T23:30:38.778Z,93.69
2023-03-26T23:33:09.242Z,93.87
2023-03-26T23:35:37.967Z,93.94
2023-03-26T23:38:08.595Z,94.11
2023-03-26T23:40:38.234Z,94.58
2023-03-26T23:43:07.031Z,94.47
2023-03-26T23:45:35.215Z,94.72
2023-03-26T23:48:05.438Z,94.49
2023-03-26T23:50:33.699Z,94.73
2023-03-26T23:53:02.690Z,94.91
2023-03-26T23:55:30.972Z,94.67
2023-03-26T23:58:00.776Z,95.04
